sensor_id;sensor_type;location;lat;lon;timestamp;P1;durP1;ratioP1;P2;durP2;ratioP2
1509;SDS011;746;48.688;9.428;2022-11-11T00:00:21;13.73;;;11.63;;
1509;SDS011;746;48.688;9.428;2022-11-11T00:02:43;11.40;;;10.30;;
1509;SDS011;746;48.688;9.428;2022-11-11T00:05:04;11.50;;;10.40;;
1509;SDS011;746;48.688;9.428;2022-11-11T00:07:25;12.37;;;11.17;;
1509;SDS011;746;48.688;9.428;2022-11-11T00:09:46;12.17;;;10.97;;
1509;SDS011;746;48.688;9.428;2022-11-11T00:12:07;12.97;;;11.10;;
1509;SDS011;746;48.688;9.428;2022-11-11T00:14:30;11.27;;;10.07;;
1509;SDS011;746;48.688;9.428;2022-11-11T00:16:51;12.47;;;9.73;;
1509;SDS011;746;48.688;9.428;2022-11-11T00:19:31;12.40;;;10.37;;
1509;SDS011;746;48.688;9.428;2022-11-11T00:22:14;11.57;;;10.37;;
1509;SDS011;746;48.688;9.428;2022-11-11T00:24:57;12.07;;;10.87;;
1509;SDS011;746;48.688;9.428;2022-11-11T00:27:28;13.10;;;11.80;;
1509;SDS011;746;48.688;9.428;2022-11-11T00:29:50;11.27;;;10.17;;
1509;SDS011;746;48.688;9.428;2022-11-11T00:32:12;12.03;;;10.70;;
1509;SDS011;746;48.688;9.428;2022-11-11T00:34:53;12.67;;;10.10;;
1509;SDS011;746;48.688;9.428;2022-11-11T00:37:32;12.57;;;10.90;;
1509;SDS011;746;48.688;9.428;2022-11-11T00:39:53;11.93;;;10.60;;
1509;SDS011;746;48.688;9.428;2022-11-11T00:42:15;11.50;;;10.40;;
1509;SDS011;746;48.688;9.428;2022-11-11T00:44:36;11.40;;;10.33;;
1509;SDS011;746;48.688;9.428;2022-11-11T00:46:59;11.53;;;10.33;;
1509;SDS011;746;48.688;9.428;2022-11-11T00:49:37;12.20;;;10.33;;
1509;SDS011;746;48.688;9.428;2022-11-11T00:52:16;11.73;;;10.07;;
1509;SDS011;746;48.688;9.428;2022-11-11T00:54:37;12.43;;;10.43;;
1509;SDS011;746;48.688;9.428;2022-11-11T00:56:59;11.83;;;10.73;;
1509;SDS011;746;48.688;9.428;2022-11-11T00:59:20;23.27;;;11.07;;
1509;SDS011;746;48.688;9.428;2022-11-11T01:01:41;16.97;;;11.03;;
1509;SDS011;746;48.688;9.428;2022-11-11T01:04:04;20.17;;;11.20;;
1509;SDS011;746;48.688;9.428;2022-11-11T01:06:26;33.80;;;11.27;;
1509;SDS011;746;48.688;9.428;2022-11-11T01:08:47;28.33;;;11.57;;
1509;SDS011;746;48.688;9.428;2022-11-11T01:11:12;33.33;;;11.97;;
1509;SDS011;746;48.688;9.428;2022-11-11T01:13:33;47.47;;;13.37;;
1509;SDS011;746;48.688;9.428;2022-11-11T01:15:57;35.57;;;13.23;;
1509;SDS011;746;48.688;9.428;2022-11-11T01:18:19;63.63;;;13.67;;
1509;SDS011;746;48.688;9.428;2022-11-11T01:20:44;43.77;;;13.17;;
1509;SDS011;746;48.688;9.428;2022-11-11T01:23:06;57.87;;;12.47;;
1509;SDS011;746;48.688;9.428;2022-11-11T01:25:28;35.03;;;12.30;;
1509;SDS011;746;48.688;9.428;2022-11-11T01:27:49;23.30;;;11.43;;
1509;SDS011;746;48.688;9.428;2022-11-11T01:30:11;65.77;;;12.30;;
1509;SDS011;746;48.688;9.428;2022-11-11T01:32:33;35.17;;;11.80;;
1509;SDS011;746;48.688;9.428;2022-11-11T01:34:54;25.50;;;11.10;;
1509;SDS011;746;48.688;9.428;2022-11-11T01:37:16;32.47;;;11.23;;
1509;SDS011;746;48.688;9.428;2022-11-11T01:39:38;34.93;;;11.27;;
1509;SDS011;746;48.688;9.428;2022-11-11T01:41:59;13.33;;;9.57;;
1509;SDS011;746;48.688;9.428;2022-11-11T01:44:42;39.23;;;10.47;;
1509;SDS011;746;48.688;9.428;2022-11-11T01:47:04;32.10;;;10.77;;
1509;SDS011;746;48.688;9.428;2022-11-11T01:49:26;32.03;;;11.90;;
1509;SDS011;746;48.688;9.428;2022-11-11T01:51:51;17.83;;;11.43;;
1509;SDS011;746;48.688;9.428;2022-11-11T01:54:16;37.17;;;12.63;;
1509;SDS011;746;48.688;9.428;2022-11-11T01:56:39;39.87;;;12.57;;
1509;SDS011;746;48.688;9.428;2022-11-11T01:59:02;58.37;;;13.77;;
1509;SDS011;746;48.688;9.428;2022-11-11T02:01:25;38.33;;;12.17;;
1509;SDS011;746;48.688;9.428;2022-11-11T02:03:46;34.93;;;12.30;;
1509;SDS011;746;48.688;9.428;2022-11-11T02:06:29;34.40;;;13.47;;
1509;SDS011;746;48.688;9.428;2022-11-11T02:08:50;22.77;;;11.67;;
1509;SDS011;746;48.688;9.428;2022-11-11T02:11:13;39.77;;;12.77;;
1509;SDS011;746;48.688;9.428;2022-11-11T02:13:36;24.63;;;11.20;;
1509;SDS011;746;48.688;9.428;2022-11-11T02:16:24;22.60;;;10.90;;
1509;SDS011;746;48.688;9.428;2022-11-11T02:18:46;14.60;;;10.73;;
1509;SDS011;746;48.688;9.428;2022-11-11T02:21:07;24.33;;;11.33;;
1509;SDS011;746;48.688;9.428;2022-11-11T02:23:30;52.67;;;13.53;;
1509;SDS011;746;48.688;9.428;2022-11-11T02:25:54;43.73;;;13.03;;
1509;SDS011;746;48.688;9.428;2022-11-11T02:28:15;95.17;;;15.60;;
1509;SDS011;746;48.688;9.428;2022-11-11T02:30:38;100.47;;;15.17;;
1509;SDS011;746;48.688;9.428;2022-11-11T02:32:59;45.00;;;12.63;;
1509;SDS011;746;48.688;9.428;2022-11-11T02:35:21;81.27;;;14.27;;
1509;SDS011;746;48.688;9.428;2022-11-11T02:37:43;58.80;;;13.90;;
1509;SDS011;746;48.688;9.428;2022-11-11T02:40:05;28.87;;;11.57;;
1509;SDS011;746;48.688;9.428;2022-11-11T02:42:30;29.93;;;12.40;;
1509;SDS011;746;48.688;9.428;2022-11-11T02:44:50;26.07;;;12.17;;
1509;SDS011;746;48.688;9.428;2022-11-11T02:47:17;29.40;;;11.00;;
1509;SDS011;746;48.688;9.428;2022-11-11T02:49:38;21.23;;;11.20;;
1509;SDS011;746;48.688;9.428;2022-11-11T02:52:00;30.97;;;10.97;;
1509;SDS011;746;48.688;9.428;2022-11-11T02:54:21;40.03;;;11.00;;
1509;SDS011;746;48.688;9.428;2022-11-11T02:56:42;15.37;;;10.67;;
1509;SDS011;746;48.688;9.428;2022-11-11T02:59:28;18.23;;;10.03;;
1509;SDS011;746;48.688;9.428;2022-11-11T03:01:49;17.70;;;10.67;;
1509;SDS011;746;48.688;9.428;2022-11-11T03:04:10;12.93;;;9.50;;
1509;SDS011;746;48.688;9.428;2022-11-11T03:06:31;21.73;;;10.87;;
1509;SDS011;746;48.688;9.428;2022-11-11T03:08:52;11.53;;;10.43;;
1509;SDS011;746;48.688;9.428;2022-11-11T03:11:14;11.80;;;10.17;;
1509;SDS011;746;48.688;9.428;2022-11-11T03:13:46;10.87;;;9.70;;
1509;SDS011;746;48.688;9.428;2022-11-11T03:16:09;15.57;;;9.63;;
1509;SDS011;746;48.688;9.428;2022-11-11T03:18:49;20.70;;;9.10;;
1509;SDS011;746;48.688;9.428;2022-11-11T03:21:10;11.80;;;9.70;;
1509;SDS011;746;48.688;9.428;2022-11-11T03:23:51;23.13;;;9.67;;
1509;SDS011;746;48.688;9.428;2022-11-11T03:26:12;19.60;;;9.20;;
1509;SDS011;746;48.688;9.428;2022-11-11T03:28:34;21.90;;;9.87;;
1509;SDS011;746;48.688;9.428;2022-11-11T03:30:55;18.20;;;10.67;;
1509;SDS011;746;48.688;9.428;2022-11-11T03:33:24;25.37;;;10.40;;
1509;SDS011;746;48.688;9.428;2022-11-11T03:35:46;12.90;;;9.97;;
1509;SDS011;746;48.688;9.428;2022-11-11T03:38:09;16.60;;;9.47;;
1509;SDS011;746;48.688;9.428;2022-11-11T03:40:42;12.30;;;9.33;;
1509;SDS011;746;48.688;9.428;2022-11-11T03:43:04;11.13;;;10.03;;
1509;SDS011;746;48.688;9.428;2022-11-11T03:45:25;11.30;;;10.20;;
1509;SDS011;746;48.688;9.428;2022-11-11T03:47:46;14.70;;;13.13;;
1509;SDS011;746;48.688;9.428;2022-11-11T03:50:09;13.83;;;12.20;;
1509;SDS011;746;48.688;9.428;2022-11-11T03:52:30;11.80;;;10.63;;
1509;SDS011;746;48.688;9.428;2022-11-11T03:54:52;10.10;;;9.20;;
1509;SDS011;746;48.688;9.428;2022-11-11T03:57:13;10.47;;;9.57;;
1509;SDS011;746;48.688;9.428;2022-11-11T03:59:52;10.33;;;9.40;;
1509;SDS011;746;48.688;9.428;2022-11-11T04:02:14;10.40;;;9.50;;
1509;SDS011;746;48.688;9.428;2022-11-11T04:04:53;10.03;;;9.13;;
1509;SDS011;746;48.688;9.428;2022-11-11T04:07:33;9.33;;;8.57;;
1509;SDS011;746;48.688;9.428;2022-11-11T04:10:12;9.73;;;8.73;;
1509;SDS011;746;48.688;9.428;2022-11-11T04:12:45;8.73;;;8.03;;
1509;SDS011;746;48.688;9.428;2022-11-11T04:15:24;9.13;;;8.43;;
1509;SDS011;746;48.688;9.428;2022-11-11T04:18:08;8.80;;;7.90;;
1509;SDS011;746;48.688;9.428;2022-11-11T04:20:29;7.80;;;7.20;;
1509;SDS011;746;48.688;9.428;2022-11-11T04:23:09;14.07;;;6.90;;
1509;SDS011;746;48.688;9.428;2022-11-11T04:25:30;17.50;;;7.27;;
1509;SDS011;746;48.688;9.428;2022-11-11T04:28:09;28.70;;;7.93;;
1509;SDS011;746;48.688;9.428;2022-11-11T04:30:48;8.40;;;7.50;;
1509;SDS011;746;48.688;9.428;2022-11-11T04:33:09;13.90;;;8.33;;
1509;SDS011;746;48.688;9.428;2022-11-11T04:35:31;41.10;;;9.70;;
1509;SDS011;746;48.688;9.428;2022-11-11T04:37:52;22.50;;;7.87;;
1509;SDS011;746;48.688;9.428;2022-11-11T04:40:35;13.97;;;7.87;;
1509;SDS011;746;48.688;9.428;2022-11-11T04:43:13;16.87;;;8.20;;
1509;SDS011;746;48.688;9.428;2022-11-11T04:45:35;16.83;;;9.30;;
1509;SDS011;746;48.688;9.428;2022-11-11T04:47:58;19.60;;;9.20;;
1509;SDS011;746;48.688;9.428;2022-11-11T04:50:20;18.77;;;8.73;;
1509;SDS011;746;48.688;9.428;2022-11-11T04:52:41;21.20;;;9.27;;
1509;SDS011;746;48.688;9.428;2022-11-11T04:55:03;18.13;;;8.30;;
1509;SDS011;746;48.688;9.428;2022-11-11T04:57:43;9.73;;;8.80;;
1509;SDS011;746;48.688;9.428;2022-11-11T05:00:06;10.27;;;9.30;;
1509;SDS011;746;48.688;9.428;2022-11-11T05:02:27;16.77;;;9.37;;
1509;SDS011;746;48.688;9.428;2022-11-11T05:05:06;13.20;;;11.90;;
1509;SDS011;746;48.688;9.428;2022-11-11T05:07:27;37.83;;;11.93;;
1509;SDS011;746;48.688;9.428;2022-11-11T05:10:06;24.00;;;12.00;;
1509;SDS011;746;48.688;9.428;2022-11-11T05:12:28;28.07;;;20.43;;
1509;SDS011;746;48.688;9.428;2022-11-11T05:14:50;26.53;;;14.80;;
1509;SDS011;746;48.688;9.428;2022-11-11T05:17:29;18.00;;;14.20;;
1509;SDS011;746;48.688;9.428;2022-11-11T05:20:08;11.03;;;10.03;;
1509;SDS011;746;48.688;9.428;2022-11-11T05:22:47;11.00;;;10.00;;
1509;SDS011;746;48.688;9.428;2022-11-11T05:25:09;9.70;;;8.80;;
1509;SDS011;746;48.688;9.428;2022-11-11T05:27:44;9.77;;;8.97;;
1509;SDS011;746;48.688;9.428;2022-11-11T05:30:07;9.77;;;8.87;;
1509;SDS011;746;48.688;9.428;2022-11-11T05:32:29;9.13;;;8.33;;
1509;SDS011;746;48.688;9.428;2022-11-11T05:34:50;8.10;;;7.40;;
1509;SDS011;746;48.688;9.428;2022-11-11T05:37:12;7.97;;;7.27;;
1509;SDS011;746;48.688;9.428;2022-11-11T05:39:33;8.60;;;7.80;;
1509;SDS011;746;48.688;9.428;2022-11-11T05:41:54;8.87;;;8.03;;
1509;SDS011;746;48.688;9.428;2022-11-11T05:44:15;7.60;;;7.00;;
1509;SDS011;746;48.688;9.428;2022-11-11T05:46:38;7.83;;;7.13;;
1509;SDS011;746;48.688;9.428;2022-11-11T05:48:59;7.20;;;6.60;;
1509;SDS011;746;48.688;9.428;2022-11-11T05:51:36;7.87;;;6.97;;
1509;SDS011;746;48.688;9.428;2022-11-11T05:53:58;27.57;;;7.63;;
1509;SDS011;746;48.688;9.428;2022-11-11T05:56:19;20.67;;;8.57;;
1509;SDS011;746;48.688;9.428;2022-11-11T05:58:40;9.70;;;8.37;;
1509;SDS011;746;48.688;9.428;2022-11-11T06:01:06;10.33;;;8.23;;
1509;SDS011;746;48.688;9.428;2022-11-11T06:03:29;18.83;;;8.73;;
1509;SDS011;746;48.688;9.428;2022-11-11T06:05:51;34.27;;;9.43;;
1509;SDS011;746;48.688;9.428;2022-11-11T06:08:12;17.17;;;8.27;;
1509;SDS011;746;48.688;9.428;2022-11-11T06:10:33;9.90;;;9.00;;
1509;SDS011;746;48.688;9.428;2022-11-11T06:12:55;9.70;;;8.70;;
1509;SDS011;746;48.688;9.428;2022-11-11T06:15:23;9.37;;;7.80;;
1509;SDS011;746;48.688;9.428;2022-11-11T06:17:45;73.57;;;9.63;;
1509;SDS011;746;48.688;9.428;2022-11-11T06:20:08;46.73;;;9.73;;
1509;SDS011;746;48.688;9.428;2022-11-11T06:22:30;48.17;;;9.03;;
1509;SDS011;746;48.688;9.428;2022-11-11T06:25:08;48.53;;;9.10;;
1509;SDS011;746;48.688;9.428;2022-11-11T06:27:47;12.57;;;7.83;;
1509;SDS011;746;48.688;9.428;2022-11-11T06:30:08;12.77;;;8.47;;
1509;SDS011;746;48.688;9.428;2022-11-11T06:32:49;8.03;;;7.43;;
1509;SDS011;746;48.688;9.428;2022-11-11T06:35:12;8.93;;;8.10;;
1509;SDS011;746;48.688;9.428;2022-11-11T06:37:35;9.17;;;8.03;;
1509;SDS011;746;48.688;9.428;2022-11-11T06:39:56;8.77;;;7.87;;
1509;SDS011;746;48.688;9.428;2022-11-11T06:42:18;19.43;;;9.10;;
1509;SDS011;746;48.688;9.428;2022-11-11T06:44:39;18.70;;;9.63;;
1509;SDS011;746;48.688;9.428;2022-11-11T06:47:00;30.07;;;10.80;;
1509;SDS011;746;48.688;9.428;2022-11-11T06:49:21;13.57;;;9.30;;
1509;SDS011;746;48.688;9.428;2022-11-11T06:51:44;13.13;;;9.57;;
1509;SDS011;746;48.688;9.428;2022-11-11T06:54:05;9.87;;;8.97;;
1509;SDS011;746;48.688;9.428;2022-11-11T06:56:27;8.43;;;7.73;;
1509;SDS011;746;48.688;9.428;2022-11-11T06:58:48;9.00;;;7.17;;
1509;SDS011;746;48.688;9.428;2022-11-11T07:01:09;7.70;;;7.00;;
1509;SDS011;746;48.688;9.428;2022-11-11T07:03:31;7.90;;;7.13;;
1509;SDS011;746;48.688;9.428;2022-11-11T07:05:52;8.30;;;7.60;;
1509;SDS011;746;48.688;9.428;2022-11-11T07:08:20;8.30;;;7.60;;
1509;SDS011;746;48.688;9.428;2022-11-11T07:10:42;6.93;;;6.43;;
1509;SDS011;746;48.688;9.428;2022-11-11T07:13:03;7.53;;;6.93;;
1509;SDS011;746;48.688;9.428;2022-11-11T07:15:24;8.70;;;7.97;;
1509;SDS011;746;48.688;9.428;2022-11-11T07:17:46;9.50;;;8.73;;
1509;SDS011;746;48.688;9.428;2022-11-11T07:20:08;9.77;;;8.77;;
1509;SDS011;746;48.688;9.428;2022-11-11T07:22:29;9.50;;;8.70;;
1509;SDS011;746;48.688;9.428;2022-11-11T07:24:58;9.37;;;8.57;;
1509;SDS011;746;48.688;9.428;2022-11-11T07:27:19;8.93;;;8.13;;
1509;SDS011;746;48.688;9.428;2022-11-11T07:29:40;11.10;;;8.10;;
1509;SDS011;746;48.688;9.428;2022-11-11T07:32:02;8.77;;;8.00;;
1509;SDS011;746;48.688;9.428;2022-11-11T07:34:23;10.17;;;8.23;;
1509;SDS011;746;48.688;9.428;2022-11-11T07:36:44;8.77;;;8.07;;
1509;SDS011;746;48.688;9.428;2022-11-11T07:39:06;8.20;;;7.60;;
1509;SDS011;746;48.688;9.428;2022-11-11T07:41:29;8.60;;;7.80;;
1509;SDS011;746;48.688;9.428;2022-11-11T07:43:50;8.30;;;7.60;;
1509;SDS011;746;48.688;9.428;2022-11-11T07:46:11;8.33;;;7.63;;
1509;SDS011;746;48.688;9.428;2022-11-11T07:48:33;8.77;;;7.97;;
1509;SDS011;746;48.688;9.428;2022-11-11T07:50:54;10.80;;;8.93;;
1509;SDS011;746;48.688;9.428;2022-11-11T07:53:15;10.70;;;9.57;;
1509;SDS011;746;48.688;9.428;2022-11-11T07:55:37;15.37;;;9.83;;
1509;SDS011;746;48.688;9.428;2022-11-11T07:57:59;14.10;;;8.80;;
1509;SDS011;746;48.688;9.428;2022-11-11T08:00:21;11.60;;;8.53;;
1509;SDS011;746;48.688;9.428;2022-11-11T08:02:45;9.20;;;8.07;;
1509;SDS011;746;48.688;9.428;2022-11-11T08:05:07;8.70;;;7.80;;
1509;SDS011;746;48.688;9.428;2022-11-11T08:07:28;8.63;;;7.93;;
1509;SDS011;746;48.688;9.428;2022-11-11T08:09:50;8.27;;;7.60;;
1509;SDS011;746;48.688;9.428;2022-11-11T08:12:11;7.90;;;7.20;;
1509;SDS011;746;48.688;9.428;2022-11-11T08:14:52;7.07;;;6.57;;
1509;SDS011;746;48.688;9.428;2022-11-11T08:17:13;7.73;;;7.13;;
1509;SDS011;746;48.688;9.428;2022-11-11T08:19:34;8.10;;;7.50;;
1509;SDS011;746;48.688;9.428;2022-11-11T08:21:56;8.93;;;8.23;;
1509;SDS011;746;48.688;9.428;2022-11-11T08:24:17;10.33;;;9.53;;
1509;SDS011;746;48.688;9.428;2022-11-11T08:26:59;9.27;;;8.47;;
1509;SDS011;746;48.688;9.428;2022-11-11T08:29:22;9.50;;;8.70;;
1509;SDS011;746;48.688;9.428;2022-11-11T08:31:44;11.27;;;10.07;;
1509;SDS011;746;48.688;9.428;2022-11-11T08:34:05;10.13;;;9.17;;
1509;SDS011;746;48.688;9.428;2022-11-11T08:36:26;10.27;;;9.37;;
1509;SDS011;746;48.688;9.428;2022-11-11T08:38:48;10.40;;;9.37;;
1509;SDS011;746;48.688;9.428;2022-11-11T08:41:09;9.47;;;8.67;;
1509;SDS011;746;48.688;9.428;2022-11-11T08:43:31;11.53;;;10.40;;
1509;SDS011;746;48.688;9.428;2022-11-11T08:45:56;10.33;;;9.43;;
1509;SDS011;746;48.688;9.428;2022-11-11T08:48:19;9.97;;;9.03;;
1509;SDS011;746;48.688;9.428;2022-11-11T08:50:40;12.33;;;11.13;;
1509;SDS011;746;48.688;9.428;2022-11-11T08:53:02;12.70;;;11.40;;
1509;SDS011;746;48.688;9.428;2022-11-11T08:55:24;13.77;;;12.30;;
1509;SDS011;746;48.688;9.428;2022-11-11T08:57:45;12.60;;;11.27;;
1509;SDS011;746;48.688;9.428;2022-11-11T09:00:07;15.73;;;12.10;;
1509;SDS011;746;48.688;9.428;2022-11-11T09:02:28;11.90;;;10.73;;
1509;SDS011;746;48.688;9.428;2022-11-11T09:04:50;12.27;;;11.07;;
1509;SDS011;746;48.688;9.428;2022-11-11T09:07:14;11.23;;;10.13;;
1509;SDS011;746;48.688;9.428;2022-11-11T09:09:35;11.77;;;10.67;;
1509;SDS011;746;48.688;9.428;2022-11-11T09:11:57;12.17;;;10.93;;
1509;SDS011;746;48.688;9.428;2022-11-11T09:14:18;12.87;;;11.60;;
1509;SDS011;746;48.688;9.428;2022-11-11T09:16:39;12.23;;;10.90;;
1509;SDS011;746;48.688;9.428;2022-11-11T09:19:01;12.90;;;11.60;;
1509;SDS011;746;48.688;9.428;2022-11-11T09:21:24;13.50;;;11.10;;
1509;SDS011;746;48.688;9.428;2022-11-11T09:23:45;11.87;;;10.70;;
1509;SDS011;746;48.688;9.428;2022-11-11T09:26:07;10.37;;;8.80;;
1509;SDS011;746;48.688;9.428;2022-11-11T09:28:28;10.63;;;9.73;;
1509;SDS011;746;48.688;9.428;2022-11-11T09:30:50;10.57;;;9.47;;
1509;SDS011;746;48.688;9.428;2022-11-11T09:33:11;9.87;;;8.97;;
1509;SDS011;746;48.688;9.428;2022-11-11T09:35:35;9.70;;;8.70;;
1509;SDS011;746;48.688;9.428;2022-11-11T09:37:58;9.87;;;8.87;;
1509;SDS011;746;48.688;9.428;2022-11-11T09:40:20;9.70;;;8.80;;
1509;SDS011;746;48.688;9.428;2022-11-11T09:42:43;9.83;;;8.93;;
1509;SDS011;746;48.688;9.428;2022-11-11T09:45:14;10.20;;;9.20;;
1509;SDS011;746;48.688;9.428;2022-11-11T09:47:38;9.27;;;8.50;;
1509;SDS011;746;48.688;9.428;2022-11-11T09:50:03;8.97;;;8.17;;
1509;SDS011;746;48.688;9.428;2022-11-11T09:52:27;8.93;;;8.20;;
1509;SDS011;746;48.688;9.428;2022-11-11T09:54:51;9.37;;;8.57;;
1509;SDS011;746;48.688;9.428;2022-11-11T09:57:14;8.70;;;7.90;;
1509;SDS011;746;48.688;9.428;2022-11-11T09:59:39;8.30;;;7.63;;
1509;SDS011;746;48.688;9.428;2022-11-11T10:02:02;8.33;;;7.60;;
1509;SDS011;746;48.688;9.428;2022-11-11T10:04:26;8.90;;;8.03;;
1509;SDS011;746;48.688;9.428;2022-11-11T10:06:50;8.80;;;8.10;;
1509;SDS011;746;48.688;9.428;2022-11-11T10:09:15;9.07;;;8.27;;
1509;SDS011;746;48.688;9.428;2022-11-11T10:11:42;8.20;;;7.50;;
1509;SDS011;746;48.688;9.428;2022-11-11T10:14:07;8.30;;;7.70;;
1509;SDS011;746;48.688;9.428;2022-11-11T10:16:31;8.03;;;7.40;;
1509;SDS011;746;48.688;9.428;2022-11-11T10:18:58;8.50;;;7.63;;
1509;SDS011;746;48.688;9.428;2022-11-11T10:21:23;8.50;;;7.80;;
1509;SDS011;746;48.688;9.428;2022-11-11T10:23:47;8.93;;;8.23;;
1509;SDS011;746;48.688;9.428;2022-11-11T10:26:11;8.27;;;7.53;;
1509;SDS011;746;48.688;9.428;2022-11-11T10:28:36;8.47;;;7.47;;
1509;SDS011;746;48.688;9.428;2022-11-11T10:30:58;9.17;;;8.27;;
1509;SDS011;746;48.688;9.428;2022-11-11T10:33:22;9.03;;;8.23;;
1509;SDS011;746;48.688;9.428;2022-11-11T10:35:45;9.60;;;8.77;;
1509;SDS011;746;48.688;9.428;2022-11-11T10:38:13;8.63;;;7.93;;
1509;SDS011;746;48.688;9.428;2022-11-11T10:40:36;9.87;;;8.73;;
1509;SDS011;746;48.688;9.428;2022-11-11T10:42:59;9.03;;;8.13;;
1509;SDS011;746;48.688;9.428;2022-11-11T10:45:22;8.57;;;7.77;;
1509;SDS011;746;48.688;9.428;2022-11-11T10:47:44;8.30;;;7.60;;
1509;SDS011;746;48.688;9.428;2022-11-11T10:50:10;8.10;;;7.40;;
1509;SDS011;746;48.688;9.428;2022-11-11T10:52:34;8.33;;;7.60;;
1509;SDS011;746;48.688;9.428;2022-11-11T10:54:57;6.97;;;6.37;;
1509;SDS011;746;48.688;9.428;2022-11-11T10:57:21;6.20;;;5.60;;
1509;SDS011;746;48.688;9.428;2022-11-11T10:59:44;7.00;;;6.30;;
1509;SDS011;746;48.688;9.428;2022-11-11T11:02:11;7.37;;;6.77;;
1509;SDS011;746;48.688;9.428;2022-11-11T11:04:34;7.70;;;6.93;;
1509;SDS011;746;48.688;9.428;2022-11-11T11:06:57;7.77;;;6.97;;
1509;SDS011;746;48.688;9.428;2022-11-11T11:09:21;7.90;;;7.10;;
1509;SDS011;746;48.688;9.428;2022-11-11T11:11:46;8.43;;;7.57;;
1509;SDS011;746;48.688;9.428;2022-11-11T11:14:11;6.70;;;6.07;;
1509;SDS011;746;48.688;9.428;2022-11-11T11:16:37;7.10;;;6.40;;
1509;SDS011;746;48.688;9.428;2022-11-11T11:19:19;7.20;;;6.60;;
1509;SDS011;746;48.688;9.428;2022-11-11T11:21:49;7.03;;;6.00;;
1509;SDS011;746;48.688;9.428;2022-11-11T11:24:17;8.07;;;6.03;;
1509;SDS011;746;48.688;9.428;2022-11-11T11:26:42;7.30;;;6.60;;
1509;SDS011;746;48.688;9.428;2022-11-11T11:29:04;6.43;;;5.83;;
1509;SDS011;746;48.688;9.428;2022-11-11T11:31:33;6.47;;;5.97;;
1509;SDS011;746;48.688;9.428;2022-11-11T11:33:56;9.20;;;6.50;;
1509;SDS011;746;48.688;9.428;2022-11-11T11:36:19;7.00;;;5.50;;
1509;SDS011;746;48.688;9.428;2022-11-11T11:38:42;7.70;;;5.73;;
1509;SDS011;746;48.688;9.428;2022-11-11T11:41:05;6.23;;;5.37;;
1509;SDS011;746;48.688;9.428;2022-11-11T11:43:31;6.13;;;5.53;;
1509;SDS011;746;48.688;9.428;2022-11-11T11:45:54;5.63;;;5.13;;
1509;SDS011;746;48.688;9.428;2022-11-11T11:48:19;7.00;;;5.30;;
1509;SDS011;746;48.688;9.428;2022-11-11T11:50:52;6.03;;;5.17;;
1509;SDS011;746;48.688;9.428;2022-11-11T11:53:24;5.10;;;4.60;;
1509;SDS011;746;48.688;9.428;2022-11-11T11:55:50;6.00;;;5.40;;
1509;SDS011;746;48.688;9.428;2022-11-11T11:58:18;7.60;;;6.00;;
1509;SDS011;746;48.688;9.428;2022-11-11T12:00:42;7.17;;;6.40;;
1509;SDS011;746;48.688;9.428;2022-11-11T12:03:11;7.80;;;7.07;;
1509;SDS011;746;48.688;9.428;2022-11-11T12:05:37;7.47;;;6.73;;
1509;SDS011;746;48.688;9.428;2022-11-11T12:08:03;7.80;;;7.00;;
1509;SDS011;746;48.688;9.428;2022-11-11T12:10:33;7.73;;;7.07;;
1509;SDS011;746;48.688;9.428;2022-11-11T12:13:03;9.33;;;7.30;;
1509;SDS011;746;48.688;9.428;2022-11-11T12:15:30;8.90;;;7.20;;
1509;SDS011;746;48.688;9.428;2022-11-11T12:17:55;7.70;;;7.00;;
1509;SDS011;746;48.688;9.428;2022-11-11T12:20:19;7.30;;;6.60;;
1509;SDS011;746;48.688;9.428;2022-11-11T12:22:47;8.20;;;7.40;;
1509;SDS011;746;48.688;9.428;2022-11-11T12:25:12;8.13;;;7.33;;
1509;SDS011;746;48.688;9.428;2022-11-11T12:27:37;8.43;;;7.23;;
1509;SDS011;746;48.688;9.428;2022-11-11T12:30:03;9.03;;;6.43;;
1509;SDS011;746;48.688;9.428;2022-11-11T12:32:31;7.43;;;6.73;;
1509;SDS011;746;48.688;9.428;2022-11-11T12:34:59;7.70;;;6.90;;
1509;SDS011;746;48.688;9.428;2022-11-11T12:37:24;8.13;;;6.77;;
1509;SDS011;746;48.688;9.428;2022-11-11T12:39:53;9.70;;;7.10;;
1509;SDS011;746;48.688;9.428;2022-11-11T12:42:23;9.20;;;6.73;;
1509;SDS011;746;48.688;9.428;2022-11-11T12:44:52;7.90;;;7.10;;
1509;SDS011;746;48.688;9.428;2022-11-11T12:47:18;8.27;;;7.47;;
1509;SDS011;746;48.688;9.428;2022-11-11T12:49:44;7.87;;;6.50;;
1509;SDS011;746;48.688;9.428;2022-11-11T12:52:14;7.53;;;6.87;;
1509;SDS011;746;48.688;9.428;2022-11-11T12:54:38;6.90;;;6.10;;
1509;SDS011;746;48.688;9.428;2022-11-11T12:57:05;8.73;;;7.17;;
1509;SDS011;746;48.688;9.428;2022-11-11T12:59:36;7.00;;;5.90;;
1509;SDS011;746;48.688;9.428;2022-11-11T13:02:07;4.47;;;4.07;;
1509;SDS011;746;48.688;9.428;2022-11-11T13:04:34;4.57;;;3.97;;
1509;SDS011;746;48.688;9.428;2022-11-11T13:07:02;4.60;;;4.17;;
1509;SDS011;746;48.688;9.428;2022-11-11T13:09:27;4.87;;;4.37;;
1509;SDS011;746;48.688;9.428;2022-11-11T13:11:55;4.20;;;3.90;;
1509;SDS011;746;48.688;9.428;2022-11-11T13:14:31;4.50;;;4.10;;
1509;SDS011;746;48.688;9.428;2022-11-11T13:16:54;5.03;;;4.43;;
1509;SDS011;746;48.688;9.428;2022-11-11T13:19:18;7.23;;;6.53;;
1509;SDS011;746;48.688;9.428;2022-11-11T13:21:42;9.70;;;6.73;;
1509;SDS011;746;48.688;9.428;2022-11-11T13:24:07;9.13;;;6.63;;
1509;SDS011;746;48.688;9.428;2022-11-11T13:26:31;8.63;;;7.23;;
1509;SDS011;746;48.688;9.428;2022-11-11T13:28:58;7.00;;;6.17;;
1509;SDS011;746;48.688;9.428;2022-11-11T13:31:22;6.83;;;6.23;;
1509;SDS011;746;48.688;9.428;2022-11-11T13:33:47;8.67;;;6.70;;
1509;SDS011;746;48.688;9.428;2022-11-11T13:36:11;8.20;;;5.87;;
1509;SDS011;746;48.688;9.428;2022-11-11T13:38:33;7.20;;;6.43;;
1509;SDS011;746;48.688;9.428;2022-11-11T13:40:56;13.67;;;6.83;;
1509;SDS011;746;48.688;9.428;2022-11-11T13:43:20;23.77;;;7.67;;
1509;SDS011;746;48.688;9.428;2022-11-11T13:45:43;12.20;;;7.33;;
1509;SDS011;746;48.688;9.428;2022-11-11T13:48:15;14.17;;;7.60;;
1509;SDS011;746;48.688;9.428;2022-11-11T13:50:38;8.57;;;6.47;;
1509;SDS011;746;48.688;9.428;2022-11-11T13:53:03;17.80;;;6.67;;
1509;SDS011;746;48.688;9.428;2022-11-11T13:55:27;7.93;;;6.40;;
1509;SDS011;746;48.688;9.428;2022-11-11T13:57:50;9.17;;;7.30;;
1509;SDS011;746;48.688;9.428;2022-11-11T14:00:22;11.80;;;7.20;;
1509;SDS011;746;48.688;9.428;2022-11-11T14:02:44;8.37;;;6.33;;
1509;SDS011;746;48.688;9.428;2022-11-11T14:05:19;7.17;;;6.47;;
1509;SDS011;746;48.688;9.428;2022-11-11T14:07:51;7.30;;;6.20;;
1509;SDS011;746;48.688;9.428;2022-11-11T14:12:53;6.60;;;6.00;;
1509;SDS011;746;48.688;9.428;2022-11-11T14:15:38;8.57;;;6.20;;
1509;SDS011;746;48.688;9.428;2022-11-11T14:18:00;10.73;;;6.27;;
1509;SDS011;746;48.688;9.428;2022-11-11T14:20:35;6.57;;;5.87;;
1509;SDS011;746;48.688;9.428;2022-11-11T14:23:06;7.60;;;6.20;;
1509;SDS011;746;48.688;9.428;2022-11-11T14:25:35;8.83;;;6.63;;
1509;SDS011;746;48.688;9.428;2022-11-11T14:27:58;8.27;;;6.37;;
1509;SDS011;746;48.688;9.428;2022-11-11T14:33:08;10.03;;;8.80;;
1509;SDS011;746;48.688;9.428;2022-11-11T14:35:33;9.53;;;8.47;;
1509;SDS011;746;48.688;9.428;2022-11-11T14:38:00;10.30;;;8.47;;
1509;SDS011;746;48.688;9.428;2022-11-11T14:40:23;8.33;;;7.43;;
1509;SDS011;746;48.688;9.428;2022-11-11T14:42:49;10.10;;;7.67;;
1509;SDS011;746;48.688;9.428;2022-11-11T14:47:52;9.50;;;8.60;;
1509;SDS011;746;48.688;9.428;2022-11-11T14:52:51;9.57;;;8.27;;
1509;SDS011;746;48.688;9.428;2022-11-11T14:55:15;9.10;;;8.20;;
1509;SDS011;746;48.688;9.428;2022-11-11T14:57:39;9.17;;;7.70;;
1509;SDS011;746;48.688;9.428;2022-11-11T15:00:02;7.73;;;6.93;;
1509;SDS011;746;48.688;9.428;2022-11-11T15:02:26;8.07;;;7.13;;
1509;SDS011;746;48.688;9.428;2022-11-11T15:04:49;7.80;;;7.10;;
1509;SDS011;746;48.688;9.428;2022-11-11T15:07:17;10.53;;;8.30;;
1509;SDS011;746;48.688;9.428;2022-11-11T15:09:57;11.97;;;8.17;;
1509;SDS011;746;48.688;9.428;2022-11-11T15:12:23;9.43;;;7.60;;
1509;SDS011;746;48.688;9.428;2022-11-11T15:14:47;7.63;;;6.77;;